Time;durP1;ratioP1;P1;durP2;ratioP2;P2;SDS_P1;SDS_P2;PMS_P1;PMS_P2;Temp;Humidity;BMP_temperature;BMP_pressure;BME280_temperature;BME280_humidity;BME280_pressure;Samples;Min_cycle;Max_cycle;Signal;HPM_P1;HPM_P2
2021/06/14 00:00:13;;;;;;;10.15;4.70;;;;;;;12.50;75.88;102248.03;1057093;28;20083;-79
2021/06/14 00:00:44;;;;;;;6.30;4.90;;;;;;;12.51;75.85;102244.59;1056939;28;20051;-80
2021/06/14 00:01:16;;;;;;;8.10;4.60;;;;;;;12.47;76.02;102241.88;1052926;28;20052;-79
2021/06/14 00:01:48;;;;;;;9.25;4.53;;;;;;;12.46;76.01;102241.84;1053837;28;20075;-79
2021/06/14 00:02:19;;;;;;;6.90;4.45;;;;;;;12.52;75.70;102251.53;1057215;28;20418;-80
2021/06/14 00:02:51;;;;;;;6.68;4.35;;;;;;;12.51;76.05;102242.88;1057078;28;20043;-80
2021/06/14 00:03:23;;;;;;;9.73;4.45;;;;;;;12.52;75.50;102241.16;1057106;28;20044;-80
2021/06/14 00:03:54;;;;;;;11.40;4.93;;;;;;;12.54;75.95;102242.97;1057249;28;20047;-79
2021/06/14 00:04:26;;;;;;;4.90;4.30;;;;;;;12.53;75.58;102241.19;1053342;28;20044;-80
2021/06/14 00:04:58;;;;;;;6.63;4.00;;;;;;;12.47;75.94;102249.66;1056929;28;20047;-79
2021/06/14 00:05:40;;;;;;;6.57;4.75;;;;;;;12.46;75.99;102244.44;1057028;28;20074;-80
2021/06/14 00:06:12;;;;;;;9.57;4.20;;;;;;;12.40;76.05;102250.34;1057139;28;20058;-80
2021/06/14 00:06:43;;;;;;;8.48;4.57;;;;;;;12.42;75.98;102240.00;1057355;28;20523;-80
2021/06/14 00:07:17;;;;;;;7.80;3.90;;;;;;;12.42;75.67;102247.78;1057297;28;20047;-80
2021/06/14 00:07:48;;;;;;;8.50;4.97;;;;;;;12.42;75.66;102240.00;1057069;28;20051;-80
2021/06/14 00:08:21;;;;;;;5.60;4.78;;;;;;;12.40;76.09;102250.34;1057176;28;20400;-80
2021/06/14 00:08:53;;;;;;;8.75;4.50;;;;;;;12.42;75.65;102245.19;1057132;28;20434;-80
2021/06/14 00:09:25;;;;;;;8.40;5.30;;;;;;;12.42;75.65;102240.91;1053279;28;20071;-80
2021/06/14 00:09:57;;;;;;;9.55;4.80;;;;;;;12.38;75.86;102248.53;1048598;28;20057;-80
2021/06/14 00:10:31;;;;;;;5.97;4.30;;;;;;;12.36;75.70;102251.06;1048683;28;20048;-79
2021/06/14 00:11:03;;;;;;;6.22;4.82;;;;;;;12.39;75.56;102239.91;1045672;28;20049;-80
2021/06/14 00:11:34;;;;;;;8.52;4.78;;;;;;;12.41;75.58;102240.81;1049698;28;20055;-79
2021/06/14 00:12:06;;;;;;;8.77;4.93;;;;;;;12.39;75.50;102245.97;1048750;28;20055;-79
2021/06/14 00:12:38;;;;;;;10.00;4.90;;;;;;;12.34;75.68;102236.28;1049162;28;20040;-80
2021/06/14 00:13:10;;;;;;;11.10;4.82;;;;;;;12.32;76.02;102237.97;1053398;28;20048;-80
2021/06/14 00:13:42;;;;;;;10.07;6.07;;;;;;;12.32;75.98;102241.44;1056938;28;20039;-80
2021/06/14 00:14:13;;;;;;;6.32;4.18;;;;;;;12.32;75.60;102240.56;1057162;28;20048;-79
2021/06/14 00:14:45;;;;;;;6.22;4.60;;;;;;;12.33;75.69;102237.13;1057127;28;20070;-79
2021/06/14 00:15:17;;;;;;;8.68;5.60;;;;;;;12.27;76.08;102236.97;1052655;28;20067;-80
2021/06/14 00:15:48;;;;;;;7.10;4.80;;;;;;;12.20;76.64;102236.78;1052900;28;20052;-80
2021/06/14 00:16:20;;;;;;;10.65;4.70;;;;;;;12.26;76.03;102232.59;1052784;28;20484;-80
2021/06/14 00:16:52;;;;;;;7.50;4.97;;;;;;;12.27;76.01;102244.75;1048712;28;20052;-80
2021/06/14 00:17:24;;;;;;;6.22;4.78;;;;;;;12.27;76.01;102240.44;1044395;28;20519;-79
2021/06/14 00:17:57;;;;;;;13.65;5.28;;;;;;;12.20;76.72;102231.59;1043350;28;20048;-80
2021/06/14 00:18:30;;;;;;;5.68;4.72;;;;;;;12.16;76.65;102229.72;1041358;28;20052;-80
2021/06/14 00:19:04;;;;;;;9.23;4.60;;;;;;;12.16;76.59;102234.91;1046503;28;20052;-79
2021/06/14 00:19:36;;;;;;;12.68;5.40;;;;;;;12.16;76.74;102236.63;1049554;28;20048;-79
2021/06/14 00:20:10;;;;;;;7.13;4.60;;;;;;;12.20;76.23;102238.50;1049655;28;20048;-80
2021/06/14 00:20:50;;;;;;;5.97;4.20;;;;;;;12.13;76.90;102237.38;1048681;28;20051;-80
2021/06/14 00:21:22;;;;;;;8.40;5.40;;;;;;;12.13;76.86;102236.50;1046288;28;20075;-79
2021/06/14 00:21:54;;;;;;;6.88;4.78;;;;;;;12.13;76.65;102239.09;1050718;28;20056;-79
2021/06/14 00:22:26;;;;;;;6.68;4.78;;;;;;;12.10;76.53;102228.66;1052979;28;20044;-79
2021/06/14 00:22:57;;;;;;;4.65;3.95;;;;;;;12.08;76.81;102230.28;1057408;28;20063;-80
2021/06/14 00:23:30;;;;;;;7.35;4.75;;;;;;;12.03;77.06;102225.00;1056999;28;20490;-80
2021/06/14 00:24:03;;;;;;;8.45;5.38;;;;;;;12.07;76.93;102231.13;1056962;28;20134;-80
2021/06/14 00:24:34;;;;;;;7.70;4.60;;;;;;;11.97;77.50;102221.31;1057082;28;20055;-80
2021/06/14 00:25:08;;;;;;;6.65;4.97;;;;;;;12.06;76.97;102231.97;1053590;28;20519;-80
2021/06/14 00:25:40;;;;;;;8.32;5.00;;;;;;;12.01;77.32;102229.22;1056860;28;20051;-79
2021/06/14 00:26:14;;;;;;;6.70;4.22;;;;;;;11.98;77.36;102228.28;1052739;28;20052;-80
2021/06/14 00:26:45;;;;;;;10.75;4.97;;;;;;;12.00;77.12;102224.88;1049613;28;20059;-80
2021/06/14 00:27:17;;;;;;;8.57;4.72;;;;;;;11.96;77.32;102228.19;1052852;28;20048;-79
2021/06/14 00:27:48;;;;;;;8.95;5.05;;;;;;;11.91;77.53;102233.28;1052721;28;20055;-79
2021/06/14 00:28:20;;;;;;;6.55;4.90;;;;;;;11.88;77.68;102233.16;1049010;28;20048;-80
2021/06/14 00:28:52;;;;;;;5.85;4.30;;;;;;;11.89;77.61;102232.31;1048700;28;20397;-80
2021/06/14 00:29:23;;;;;;;9.45;5.68;;;;;;;11.92;77.47;102226.38;1049042;28;20048;-80
2021/06/14 00:29:55;;;;;;;7.85;4.72;;;;;;;11.90;77.54;102223.69;1049300;28;20048;-80
2021/06/14 00:30:32;;;;;;;8.13;5.18;;;;;;;11.92;77.03;102222.06;1052804;28;20044;-80
2021/06/14 00:31:03;;;;;;;7.05;4.43;;;;;;;11.99;77.21;102223.13;1048669;28;20428;-80
2021/06/14 00:31:35;;;;;;;8.57;4.97;;;;;;;11.91;77.63;102230.69;1049776;28;20045;-80
2021/06/14 00:32:07;;;;;;;8.57;4.90;;;;;;;11.99;76.75;102232.63;1048929;28;20068;-79
2021/06/14 00:32:39;;;;;;;7.35;4.78;;;;;;;12.02;76.80;102228.38;1053367;28;20052;-79
2021/06/14 00:33:13;;;;;;;6.60;4.70;;;;;;;11.98;76.95;102228.28;1056854;28;20055;-80
2021/06/14 00:33:44;;;;;;;9.77;5.18;;;;;;;12.03;76.59;102230.19;1056822;28;20047;-80
2021/06/14 00:34:15;;;;;;;8.57;4.72;;;;;;;11.99;76.83;102228.31;1056793;28;20055;-80
2021/06/14 00:34:47;;;;;;;8.68;4.28;;;;;;;11.97;77.53;102229.09;1057386;28;20047;-79
2021/06/14 00:35:18;;;;;;;11.95;5.00;;;;;;;12.04;77.01;102229.34;1052798;28;20067;-80
2021/06/14 00:35:50;;;;;;;8.68;4.32;;;;;;;12.12;76.41;102227.84;1053189;28;20476;-80
2021/06/14 00:36:22;;;;;;;6.50;4.90;;;;;;;12.11;76.31;102222.63;1056931;28;20051;-80
2021/06/14 00:36:54;;;;;;;9.35;4.68;;;;;;;12.04;76.74;102228.47;1057061;28;20043;-80
2021/06/14 00:37:25;;;;;;;6.65;4.32;;;;;;;12.06;76.35;102230.25;1052757;28;20542;-80
2021/06/14 00:37:57;;;;;;;6.70;4.40;;;;;;;12.04;76.56;102223.28;1052988;28;20048;-80
2021/06/14 00:38:29;;;;;;;6.63;4.93;;;;;;;12.01;76.30;102229.22;1053208;28;20060;-80
2021/06/14 00:39:00;;;;;;;12.77;5.63;;;;;;;12.01;76.43;102220.56;1053094;28;20423;-80
2021/06/14 00:39:32;;;;;;;7.28;5.20;;;;;;;11.99;76.60;102227.44;1052544;28;20048;-80
2021/06/14 00:40:04;;;;;;;8.65;5.68;;;;;;;11.89;77.49;102226.25;1057294;28;20058;-80
2021/06/14 00:40:36;;;;;;;7.00;4.32;;;;;;;11.86;77.48;102233.97;1053173;28;20400;-79
2021/06/14 00:41:11;;;;;;;7.38;5.13;;;;;;;11.84;77.13;102231.28;1056850;28;20040;-80
2021/06/14 00:41:43;;;;;;;9.13;5.20;;;;;;;11.83;77.22;102219.16;1055930;28;20058;-80
2021/06/14 00:42:14;;;;;;;8.15;5.00;;;;;;;11.79;77.61;102221.56;1056008;28;20044;-80
2021/06/14 00:42:46;;;;;;;6.15;4.85;;;;;;;11.85;77.11;102221.78;1057099;28;20396;-79
2021/06/14 00:43:17;;;;;;;7.70;4.60;;;;;;;11.90;77.42;102220.22;1052756;28;20039;-80
2021/06/14 00:43:49;;;;;;;13.43;5.20;;;;;;;12.02;76.71;102222.31;1048423;28;20149;-80
2021/06/14 00:44:20;;;;;;;7.35;5.18;;;;;;;12.01;76.27;102215.38;1049119;28;20040;-80
2021/06/14 00:44:52;;;;;;;7.60;4.20;;;;;;;11.99;76.11;102219.66;1049181;28;20494;-80
2021/06/14 00:45:29;;;;;;;7.13;5.13;;;;;;;11.92;77.06;102216.88;1053216;28;20075;-80
2021/06/14 00:46:01;;;;;;;9.23;4.57;;;;;;;11.92;77.10;102214.28;1052702;28;20059;-80
2021/06/14 00:46:32;;;;;;;6.88;4.90;;;;;;;11.96;77.32;102216.94;1049751;28;20050;-79
2021/06/14 00:47:04;;;;;;;5.80;4.40;;;;;;;11.93;76.92;102215.16;1048626;28;20206;-80
2021/06/14 00:47:36;;;;;;;9.90;4.85;;;;;;;11.89;76.67;102224.53;1049168;28;20547;-79
2021/06/14 00:48:09;;;;;;;8.13;5.05;;;;;;;11.87;76.84;102218.44;1049198;28;20048;-80
2021/06/14 00:48:40;;;;;;;6.70;4.78;;;;;;;11.79;77.23;102217.25;1048260;28;20040;-80
2021/06/14 00:49:12;;;;;;;12.95;4.97;;;;;;;11.78;77.27;102206.84;1044912;28;20053;-80
2021/06/14 00:49:43;;;;;;;9.85;5.40;;;;;;;11.72;77.56;102219.63;1045090;28;20056;-80
2021/06/14 00:50:19;;;;;;;5.85;4.55;;;;;;;11.73;77.62;102218.78;1046534;28;20048;-80
2021/06/14 00:50:54;;;;;;;8.88;4.82;;;;;;;11.63;77.85;102209.84;1049498;28;20049;-80
2021/06/14 00:51:25;;;;;;;7.18;4.65;;;;;;;11.63;78.04;102204.66;1050071;28;20056;-80
2021/06/14 00:51:57;;;;;;;7.10;4.88;;;;;;;11.61;77.93;102208.91;1052591;28;20056;-79
2021/06/14 00:52:29;;;;;;;8.13;5.43;;;;;;;11.60;78.08;102201.97;1052738;28;20436;-80
2021/06/14 00:53:01;;;;;;;8.10;6.15;;;;;;;11.59;78.26;102210.56;1053059;28;20044;-80
2021/06/14 00:53:35;;;;;;;5.85;5.00;;;;;;;11.64;78.19;102203.81;1058600;27;20442;-80
2021/06/14 00:54:08;;;;;;;7.32;4.90;;;;;;;11.63;78.01;102207.25;1052823;28;20160;-80
2021/06/14 00:54:40;;;;;;;8.90;4.68;;;;;;;11.65;77.78;102209.06;1052727;28;20044;-80
2021/06/14 00:55:16;;;;;;;6.43;5.07;;;;;;;11.56;78.25;102208.75;1050817;28;20523;-80
2021/06/14 00:55:48;;;;;;;7.30;5.13;;;;;;;11.50;78.47;102205.94;1049858;28;20044;-79
2021/06/14 00:56:19;;;;;;;7.93;5.05;;;;;;;11.55;77.62;102203.53;1048461;28;20055;-80
2021/06/14 00:56:51;;;;;;;7.68;5.20;;;;;;;11.56;78.10;102206.16;1045401;28;20056;-80
2021/06/14 00:57:22;;;;;;;6.22;4.60;;;;;;;11.50;78.33;102205.94;1048718;28;20057;-80
2021/06/14 00:57:54;;;;;;;10.90;5.03;;;;;;;11.51;78.15;102206.81;1048954;28;20071;-80
2021/06/14 00:58:27;;;;;;;7.25;4.68;;;;;;;11.56;78.11;102195.78;1049008;28;20122;-80
2021/06/14 00:58:58;;;;;;;7.15;4.50;;;;;;;11.61;78.17;102206.31;1048486;28;20048;-80
2021/06/14 00:59:30;;;;;;;7.43;4.70;;;;;;;11.64;77.52;102198.66;1048889;28;20049;-80
2021/06/14 01:00:05;;;;;;;8.50;4.50;;;;;;;11.54;78.21;102197.44;1052510;28;20056;-80
2021/06/14 01:00:37;;;;;;;6.97;4.85;;;;;;;11.50;78.41;102198.19;1045299;28;20179;-79
2021/06/14 01:01:09;;;;;;;5.88;4.72;;;;;;;11.56;77.93;102200.09;1044340;28;20053;-80
2021/06/14 01:01:41;;;;;;;6.75;4.78;;;;;;;11.52;78.44;102198.25;1046572;28;20052;-80
2021/06/14 01:02:13;;;;;;;6.28;4.75;;;;;;;11.56;78.26;102194.91;1049964;28;20127;-80
2021/06/14 01:02:44;;;;;;;6.20;4.82;;;;;;;11.47;78.50;102198.09;1056960;28;20503;-80
2021/06/14 01:03:16;;;;;;;6.05;4.97;;;;;;;11.54;78.15;102197.44;1056693;28;20039;-80
2021/06/14 01:03:47;;;;;;;6.57;4.60;;;;;;;11.53;78.49;102198.28;1056898;28;20044;-80
2021/06/14 01:04:19;;;;;;;9.02;5.40;;;;;;;11.51;78.05;102196.47;1056857;28;20074;-80
2021/06/14 01:04:50;;;;;;;8.02;5.00;;;;;;;11.56;77.28;102194.91;1056710;28;20044;-80
2021/06/14 01:05:23;;;;;;;8.18;4.72;;;;;;;11.64;77.67;102196.06;1052695;28;20404;-80
2021/06/14 01:05:58;;;;;;;6.85;4.93;;;;;;;11.69;77.22;102194.50;1053161;28;20059;-79
2021/06/14 01:06:30;;;;;;;7.75;5.13;;;;;;;11.73;77.13;102188.56;1056731;28;20047;-80
2021/06/14 01:07:02;;;;;;;8.07;4.97;;;;;;;11.69;76.93;102194.50;1052701;28;20056;-80
2021/06/14 01:07:34;;;;;;;8.13;4.80;;;;;;;11.65;77.88;102192.63;1053624;28;20048;-80
2021/06/14 01:08:07;;;;;;;6.70;5.55;;;;;;;11.64;77.77;102198.66;1052437;28;20063;-80
2021/06/14 01:08:42;;;;;;;8.95;5.00;;;;;;;11.60;77.53;102196.78;1048422;28;20059;-80
2021/06/14 01:09:13;;;;;;;6.10;5.03;;;;;;;11.64;77.45;102189.16;1044346;28;20049;-78
2021/06/14 01:09:45;;;;;;;9.77;5.30;;;;;;;11.64;78.01;102196.06;1046387;28;20408;-80
2021/06/14 01:10:17;;;;;;;9.32;5.32;;;;;;;11.66;77.60;102187.47;1049262;28;20063;-80
2021/06/14 01:10:50;;;;;;;9.60;5.47;;;;;;;11.62;77.91;102182.13;1052656;28;20389;-80
2021/06/14 01:11:50;;;;;;;7.38;5.25;;;;;;;11.66;77.56;102186.59;1055280;28;20058;-80
2021/06/14 01:12:28;;;;;;;10.23;5.28;;;;;;;11.63;77.13;102184.81;1056801;28;20158;-79
2021/06/14 01:13:06;;;;;;;7.93;5.22;;;;;;;11.74;76.77;102179.97;1053590;28;20044;-80
2021/06/14 01:13:41;;;;;;;7.75;5.63;;;;;;;11.75;76.82;102186.03;1052740;28;20055;-79
2021/06/14 01:14:22;;;;;;;8.88;5.40;;;;;;;11.64;77.40;102181.38;1052442;28;20056;-79
2021/06/14 01:15:15;;;;;;;8.38;5.75;;;;;;;11.53;77.57;102185.34;1055806;28;20050;-80
2021/06/14 01:15:55;;;;;;;5.53;4.43;;;;;;;11.44;77.79;102176.38;1057222;28;20133;-80
2021/06/14 01:16:53;;;;;;;7.95;5.30;;;;;;;11.38;77.90;102180.50;1056794;28;20058;-80
2021/06/14 01:17:46;;;;;;;7.78;5.07;;;;;;;11.46;77.84;102178.19;1056810;28;20051;-80
2021/06/14 01:18:25;;;;;;;5.82;4.70;;;;;;;11.46;78.01;102175.59;1055142;28;20125;-80
2021/06/14 01:19:03;;;;;;;10.45;5.05;;;;;;;11.33;78.05;102187.25;1052738;28;20381;-80
2021/06/14 01:19:53;;;;;;;10.48;6.18;;;;;;;11.30;78.24;102174.22;1052391;28;20043;-80
2021/06/14 01:20:45;;;;;;;8.13;5.32;;;;;;;11.37;77.84;102176.16;1052536;28;20069;-80
2021/06/14 01:21:28;;;;;;;12.68;5.68;;;;;;;11.40;77.96;102175.38;1052630;28;20052;-80
2021/06/14 01:22:09;;;;;;;7.50;5.05;;;;;;;11.35;78.11;102172.66;1052545;28;20052;-80
2021/06/14 01:22:53;;;;;;;8.93;4.85;;;;;;;11.32;78.25;102171.66;1054897;28;20052;-80
2021/06/14 01:23:43;;;;;;;8.30;5.07;;;;;;;11.31;78.12;102172.50;1052668;28;20091;-80
2021/06/14 01:24:33;;;;;;;7.55;5.63;;;;;;;11.28;78.47;102174.97;1052857;28;20055;-80
2021/06/14 01:25:19;;;;;;;10.65;5.10;;;;;;;11.17;79.02;102179.78;1053804;28;20043;-80
2021/06/14 01:25:55;;;;;;;7.68;5.20;;;;;;;11.21;78.78;102173.91;1052596;28;20117;-80
2021/06/14 01:26:31;;;;;;;7.70;5.57;;;;;;;11.26;78.77;102172.34;1048279;28;20040;-80
2021/06/14 01:27:07;;;;;;;8.50;5.55;;;;;;;11.28;78.80;102174.97;1044163;28;20394;-80
2021/06/14 01:27:42;;;;;;;7.53;5.43;;;;;;;11.21;78.96;102171.31;1049825;28;20404;-80
2021/06/14 01:28:14;;;;;;;7.32;5.18;;;;;;;11.17;79.28;102174.59;1050111;28;20044;-80
2021/06/14 01:28:46;;;;;;;6.93;5.05;;;;;;;11.17;79.12;102174.59;1054076;28;20052;-79
2021/06/14 01:29:18;;;;;;;6.90;4.55;;;;;;;11.24;78.30;102168.84;1053346;28;20058;-80
2021/06/14 01:29:49;;;;;;;9.38;4.85;;;;;;;11.24;78.51;102167.94;1056169;28;20047;-80
2021/06/14 01:30:33;;;;;;;6.60;4.80;;;;;;;11.29;78.12;102171.59;1052736;28;20055;-80
2021/06/14 01:31:05;;;;;;;7.22;5.25;;;;;;;11.21;79.03;102170.44;1060862;27;20113;-80
2021/06/14 01:31:39;;;;;;;8.15;5.22;;;;;;;11.15;78.70;102166.78;1056416;28;20043;-79
2021/06/14 01:32:12;;;;;;;10.98;5.10;;;;;;;11.12;78.77;102173.59;1052325;28;20071;-79
2021/06/14 01:32:45;;;;;;;8.60;5.63;;;;;;;11.11;78.44;102167.50;1048353;28;20067;-80
2021/06/14 01:33:20;;;;;;;7.57;4.22;;;;;;;11.04;78.73;102167.25;1049494;28;20516;-80
2021/06/14 01:33:52;;;;;;;10.00;5.78;;;;;;;11.03;79.15;102166.38;1049664;28;20072;-79
2021/06/14 01:34:27;;;;;;;6.07;5.05;;;;;;;11.05;79.39;102164.72;1049684;28;20044;-79
2021/06/14 01:34:59;;;;;;;7.13;4.57;;;;;;;11.06;79.21;102166.50;1052615;28;20405;-79
2021/06/14 01:35:52;;;;;;;6.78;5.25;;;;;;;11.11;78.85;102162.34;1049255;28;20114;-80
2021/06/14 01:36:31;;;;;;;7.18;5.28;;;;;;;11.15;78.56;102156.44;1052499;28;20055;-80
2021/06/14 01:37:04;;;;;;;6.40;4.60;;;;;;;11.20;78.36;102155.72;1052437;28;20059;-79
2021/06/14 01:37:49;;;;;;;6.28;4.72;;;;;;;11.14;78.72;102162.44;1056717;28;20075;-80
2021/06/14 01:38:24;;;;;;;8.43;6.13;;;;;;;11.05;79.31;102163.84;1056609;28;20050;-80
2021/06/14 01:38:56;;;;;;;8.90;5.45;;;;;;;11.01;79.30;102160.28;1055628;28;20059;-80
2021/06/14 01:39:32;;;;;;;8.70;5.40;;;;;;;10.99;79.39;102161.03;1052029;28;20044;-80
2021/06/14 01:40:04;;;;;;;7.15;5.13;;;;;;;10.96;79.37;102154.06;1048434;28;20056;-80
2021/06/14 01:40:37;;;;;;;9.30;5.15;;;;;;;10.99;79.15;102153.28;1049415;28;20054;-80
2021/06/14 01:41:10;;;;;;;8.63;5.68;;;;;;;10.97;79.46;102155.81;1049565;28;20050;-80
2021/06/14 01:41:43;;;;;;;5.80;4.43;;;;;;;11.00;78.94;102147.25;1047813;28;20052;-79
2021/06/14 01:42:15;;;;;;;7.28;5.20;;;;;;;10.96;79.44;102155.78;1045025;28;20520;-80
2021/06/14 01:42:50;;;;;;;6.70;4.88;;;;;;;10.94;79.58;102155.69;1049373;28;20403;-80
2021/06/14 01:43:24;;;;;;;8.13;5.07;;;;;;;10.91;79.93;102152.16;1049218;28;20056;-80
2021/06/14 01:43:58;;;;;;;7.63;4.47;;;;;;;10.93;79.31;102150.47;1053787;28;20510;-81
2021/06/14 01:44:31;;;;;;;8.18;4.78;;;;;;;10.99;79.12;102148.97;1056758;28;20047;-79
2021/06/14 01:45:05;;;;;;;5.57;4.90;;;;;;;10.96;79.38;102153.19;1056633;28;20048;-80
2021/06/14 01:45:42;;;;;;;11.52;5.50;;;;;;;10.90;79.36;102143.50;1049575;28;20385;-80
2021/06/14 01:46:26;;;;;;;7.47;4.97;;;;;;;10.92;79.78;102146.13;1052365;28;20550;-80
2021/06/14 01:47:01;;;;;;;6.00;4.32;;;;;;;10.93;79.55;102148.75;1054479;28;20059;-80
2021/06/14 01:47:32;;;;;;;8.55;5.05;;;;;;;10.91;79.38;102147.84;1056620;28;20157;-80
2021/06/14 01:48:05;;;;;;;5.68;5.10;;;;;;;10.94;79.06;102153.09;1056589;28;20044;-80
2021/06/14 01:48:39;;;;;;;7.40;5.32;;;;;;;10.95;79.51;102152.31;1056730;28;20054;-80
2021/06/14 01:49:12;;;;;;;6.60;4.97;;;;;;;10.96;78.94;102150.59;1056823;28;20055;-80
2021/06/14 01:49:44;;;;;;;9.05;4.65;;;;;;;10.92;79.16;102148.72;1056483;28;20051;-80
2021/06/14 01:50:16;;;;;;;10.40;5.25;;;;;;;10.85;79.50;102148.50;1056666;28;20044;-80
2021/06/14 01:50:49;;;;;;;11.43;5.28;;;;;;;10.82;79.58;102153.56;1052519;28;20086;-80
2021/06/14 01:51:24;;;;;;;5.97;4.85;;;;;;;10.83;79.80;102150.19;1052528;28;20413;-80
2021/06/14 01:51:56;;;;;;;9.25;5.43;;;;;;;10.86;79.22;102149.38;1053676;28;20114;-80
2021/06/14 01:52:27;;;;;;;5.85;4.93;;;;;;;10.80;79.75;102150.06;1056691;28;20071;-80
2021/06/14 01:52:59;;;;;;;7.45;5.13;;;;;;;10.81;79.84;102156.13;1056745;28;20418;-80
2021/06/14 01:53:31;;;;;;;10.73;5.10;;;;;;;10.81;79.97;102148.34;1056407;28;20091;-80
2021/06/14 01:54:04;;;;;;;9.30;5.13;;;;;;;10.82;79.70;102147.50;1056731;28;20044;-80
2021/06/14 01:54:36;;;;;;;8.25;5.35;;;;;;;10.79;79.55;102156.06;1056891;28;20043;-80
2021/06/14 01:55:15;;;;;;;5.68;4.32;;;;;;;10.79;79.60;102145.72;1056627;28;20051;-80
2021/06/14 01:55:47;;;;;;;10.23;5.20;;;;;;;10.78;79.93;102136.19;1052574;28;20417;-80
2021/06/14 01:56:19;;;;;;;6.43;4.40;;;;;;;10.80;79.95;102137.13;1054081;28;20048;-80
2021/06/14 01:56:52;;;;;;;10.27;5.35;;;;;;;10.73;80.09;102142.91;1056620;28;20047;-80
2021/06/14 01:57:25;;;;;;;6.40;4.65;;;;;;;10.65;80.46;102143.44;1056706;28;20529;-79
2021/06/14 01:57:58;;;;;;;5.53;4.45;;;;;;;10.66;80.12;102130.56;1056857;28;20381;-80
2021/06/14 01:58:31;;;;;;;8.75;5.45;;;;;;;10.73;79.89;102129.97;1056961;28;20043;-80
2021/06/14 01:59:06;;;;;;;5.47;4.95;;;;;;;10.75;79.55;102135.19;1056808;28;20075;-80
2021/06/14 01:59:39;;;;;;;6.20;4.60;;;;;;;10.72;79.88;102127.31;1056853;28;20047;-79
2021/06/14 02:00:12;;;;;;;9.52;4.93;;;;;;;10.81;79.40;102128.50;1056396;28;20420;-80
2021/06/14 02:00:44;;;;;;;8.27;4.70;;;;;;;10.84;79.16;102132.94;1056696;28;20051;-80
2021/06/14 02:01:16;;;;;;;6.78;4.97;;;;;;;10.87;79.12;102126.13;1056500;28;20051;-80
2021/06/14 02:01:48;;;;;;;10.82;5.13;;;;;;;10.82;79.01;102125.09;1052351;28;20044;-80
2021/06/14 02:02:20;;;;;;;8.43;5.32;;;;;;;10.85;79.05;102122.63;1049362;28;20560;-80
2021/06/14 02:02:53;;;;;;;7.85;4.53;;;;;;;10.81;79.12;102132.81;1052484;28;20052;-79
2021/06/14 02:03:25;;;;;;;6.22;4.60;;;;;;;10.85;78.95;102124.34;1048985;28;20059;-80
2021/06/14 02:03:59;;;;;;;10.07;4.95;;;;;;;10.85;79.16;102129.50;1053278;28;20431;-80
2021/06/14 02:04:33;;;;;;;7.53;4.40;;;;;;;10.83;78.93;102126.88;1056543;28;20051;-80
2021/06/14 02:05:05;;;;;;;4.72;4.22;;;;;;;10.84;79.30;102127.75;1056703;28;20063;-79
2021/06/14 02:05:38;;;;;;;8.43;4.88;;;;;;;10.90;78.84;102121.91;1056982;28;20052;-80
2021/06/14 02:06:09;;;;;;;6.68;5.15;;;;;;;10.88;78.85;102120.13;1056599;28;20050;-80
2021/06/14 02:06:44;;;;;;;9.30;5.00;;;;;;;10.81;79.72;102115.56;1052251;28;20048;-80
2021/06/14 02:07:18;;;;;;;8.88;5.20;;;;;;;10.73;79.71;102119.63;1052448;28;20051;-79
2021/06/14 02:07:51;;;;;;;8.65;6.10;;;;;;;10.75;79.70;102117.06;1053709;28;20048;-80
2021/06/14 02:08:23;;;;;;;6.50;4.43;;;;;;;10.77;79.51;102118.88;1053966;28;20055;-80
2021/06/14 02:08:58;;;;;;;5.40;4.43;;;;;;;10.80;79.29;102113.81;1056635;28;20054;-80
2021/06/14 02:09:31;;;;;;;5.80;4.78;;;;;;;10.87;78.93;102115.78;1051123;28;20060;-80
2021/06/14 02:10:06;;;;;;;8.57;5.20;;;;;;;10.88;78.94;102120.13;1054167;28;20052;-79
2021/06/14 02:10:38;;;;;;;9.30;5.72;;;;;;;10.87;79.15;102118.38;1056560;28;20050;-80
2021/06/14 02:11:09;;;;;;;10.38;6.18;;;;;;;10.85;79.56;102119.16;1056666;28;20051;-80
2021/06/14 02:11:45;;;;;;;6.68;5.32;;;;;;;10.76;79.69;102118.81;1057021;28;20048;-80
2021/06/14 02:12:16;;;;;;;8.98;5.47;;;;;;;10.75;79.90;102119.66;1056694;28;20044;-80
2021/06/14 02:12:50;;;;;;;6.20;5.18;;;;;;;10.76;79.60;102111.06;1056590;28;20040;-80
2021/06/14 02:13:23;;;;;;;8.02;5.22;;;;;;;10.79;79.44;102114.66;1052173;28;20048;-80
2021/06/14 02:13:56;;;;;;;7.60;5.55;;;;;;;10.74;79.68;102116.19;1053454;28;20476;-80
2021/06/14 02:14:31;;;;;;;9.55;5.13;;;;;;;10.66;80.27;102116.75;1056668;28;20475;-80
2021/06/14 02:15:03;;;;;;;7.00;5.05;;;;;;;10.59;79.76;102121.69;1056928;28;20048;-80
2021/06/14 02:15:35;;;;;;;8.77;6.45;;;;;;;10.60;80.02;102117.41;1056987;28;20039;-80
2021/06/14 02:16:08;;;;;;;8.75;5.57;;;;;;;10.61;80.42;102114.03;1056873;28;20047;-80
2021/06/14 02:16:42;;;;;;;8.10;6.07;;;;;;;10.66;79.85;102117.63;1056677;28;20050;-80
2021/06/14 02:17:20;;;;;;;7.22;5.32;;;;;;;10.66;79.82;102112.44;1056503;28;20048;-80
2021/06/14 02:17:54;;;;;;;8.68;5.47;;;;;;;10.59;80.31;102120.81;1057064;28;20501;-79
2021/06/14 02:18:26;;;;;;;7.65;5.00;;;;;;;10.58;80.02;102119.06;1056635;28;20056;-80
2021/06/14 02:18:58;;;;;;;9.63;5.30;;;;;;;10.57;80.15;102118.19;1056573;28;20063;-79
2021/06/14 02:19:30;;;;;;;10.90;5.85;;;;;;;10.45;80.75;102114.28;1056272;28;20051;-80
2021/06/14 02:20:05;;;;;;;6.57;4.75;;;;;;;10.34;81.43;102113.91;1056966;28;20052;-80
2021/06/14 02:20:40;;;;;;;8.60;5.78;;;;;;;10.38;81.03;102118.38;1056964;28;20055;-79
2021/06/14 02:21:13;;;;;;;6.28;5.25;;;;;;;10.42;80.72;102116.75;1056571;28;20048;-80
2021/06/14 02:21:46;;;;;;;7.30;5.68;;;;;;;10.39;81.04;102109.78;1056474;28;20055;-80
2021/06/14 02:22:19;;;;;;;8.35;5.30;;;;;;;10.41;80.67;102115.00;1052471;28;20052;-80
2021/06/14 02:22:51;;;;;;;8.27;6.07;;;;;;;10.45;80.57;102119.47;1049171;28;20051;-80
2021/06/14 02:23:23;;;;;;;9.85;5.25;;;;;;;10.43;80.79;102115.94;1052300;28;20048;-79
2021/06/14 02:23:54;;;;;;;8.18;5.13;;;;;;;10.44;80.96;102112.53;1053090;28;20052;-80
2021/06/14 02:24:26;;;;;;;8.90;5.80;;;;;;;10.45;80.67;102116.88;1052940;28;20048;-80
2021/06/14 02:24:57;;;;;;;7.35;5.80;;;;;;;10.43;80.87;102118.50;1056653;28;20380;-80
2021/06/14 02:25:29;;;;;;;11.60;5.97;;;;;;;10.41;81.25;102121.06;1052320;28;20122;-80
2021/06/14 02:26:00;;;;;;;7.65;5.50;;;;;;;10.38;81.18;102110.63;1048546;28;20049;-80
2021/06/14 02:26:32;;;;;;;9.55;6.30;;;;;;;10.41;81.28;102117.59;1052268;28;20048;-80
2021/06/14 02:27:04;;;;;;;7.15;5.22;;;;;;;10.39;81.46;102114.97;1048434;28;20052;-80
2021/06/14 02:27:36;;;;;;;8.00;5.20;;;;;;;10.40;81.20;102113.25;1048579;28;20044;-80
2021/06/14 02:28:08;;;;;;;7.13;5.53;;;;;;;10.37;81.16;102107.94;1047698;28;20048;-80
2021/06/14 02:28:40;;;;;;;9.60;6.28;;;;;;;10.45;80.60;102103.94;1048849;28;20416;-80
2021/06/14 02:29:12;;;;;;;6.72;5.22;;;;;;;10.46;80.63;102109.16;1053046;28;20395;-80
2021/06/14 02:29:45;;;;;;;6.82;5.47;;;;;;;10.44;80.99;102108.25;1060152;27;21205;-80
2021/06/14 02:30:22;;;;;;;5.72;4.43;;;;;;;10.37;81.23;102103.66;1060002;28;20039;-80
2021/06/14 02:30:54;;;;;;;9.15;4.85;;;;;;;10.41;80.73;102102.06;1056547;28;20058;-80
2021/06/14 02:31:25;;;;;;;9.15;5.60;;;;;;;10.41;80.57;102108.13;1056551;28;20420;-80
2021/06/14 02:31:57;;;;;;;8.73;5.93;;;;;;;10.41;80.66;102105.53;1056483;28;20088;-80
2021/06/14 02:32:32;;;;;;;7.80;5.85;;;;;;;10.34;80.71;102106.16;1056605;28;20047;-80
2021/06/14 02:33:04;;;;;;;6.85;5.60;;;;;;;10.28;81.14;102101.63;1056946;28;20355;-80
2021/06/14 02:33:35;;;;;;;7.13;5.43;;;;;;;10.32;81.52;102097.44;1056895;28;20046;-80
2021/06/14 02:34:08;;;;;;;9.48;5.53;;;;;;;10.30;81.30;102102.56;1056551;28;20055;-80
2021/06/14 02:34:43;;;;;;;7.25;5.63;;;;;;;10.36;80.97;102101.91;1056478;28;20134;-80
2021/06/14 02:35:14;;;;;;;7.95;5.57;;;;;;;10.29;81.52;102097.34;1052435;28;20044;-80
2021/06/14 02:35:46;;;;;;;12.63;5.70;;;;;;;10.27;81.39;102099.00;1049124;28;20056;-79
2021/06/14 02:36:19;;;;;;;7.32;5.47;;;;;;;10.26;81.46;102098.09;1052406;28;20059;-80
2021/06/14 02:36:52;;;;;;;10.38;5.50;;;;;;;10.29;81.52;102100.81;1048775;28;20041;-79